createdAt,value
2023-05-14T00:02:01.165Z,11.14
2023-05-14T00:04:33.549Z,11.12
2023-05-14T00:07:05.835Z,11.09
2023-05-14T00:09:37.874Z,11.08
2023-05-14T00:12:10.980Z,11.06
2023-05-14T00:14:44.063Z,11.04
2023-05-14T00:17:16.059Z,11.03
2023-05-14T00:19:48.004Z,11.04
2023-05-14T00:22:20.084Z,11.04
2023-05-14T00:24:52.063Z,11.05
2023-05-14T00:27:24.088Z,11.04
2023-05-14T00:29:56.014Z,11.02
2023-05-14T00:32:27.931Z,11.01
2023-05-14T00:35:00.493Z,10.99
2023-05-14T00:37:33.688Z,10.96
2023-05-14T00:40:06.936Z,10.92
2023-05-14T00:42:38.885Z,10.87
2023-05-14T00:45:12.589Z,10.86
2023-05-14T00:47:44.598Z,10.85
2023-05-14T00:50:17.884Z,10.85
2023-05-14T00:52:50.055Z,10.85
2023-05-14T00:55:23.094Z,10.85
2023-05-14T00:57:56.184Z,10.83
2023-05-14T01:00:28.611Z,10.81
2023-05-14T01:03:02.690Z,10.79
2023-05-14T01:05:34.679Z,10.78
2023-05-14T01:08:11.164Z,10.76
2023-05-14T01:10:52.553Z,10.78
2023-05-14T01:13:38.721Z,10.78
2023-05-14T01:16:14.184Z,10.76
2023-05-14T01:18:48.021Z,10.75
2023-05-14T01:21:38.302Z,10.73
2023-05-14T01:24:10.846Z,10.69
2023-05-14T01:26:42.807Z,10.66
2023-05-14T01:29:20.627Z,10.63
2023-05-14T01:31:54.471Z,10.60
2023-05-14T01:34:27.325Z,10.57
2023-05-14T01:36:59.865Z,10.53
2023-05-14T01:39:32.588Z,10.51
2023-05-14T01:42:08.242Z,10.49
2023-05-14T01:44:40.164Z,10.47
2023-05-14T01:47:12.426Z,10.43
2023-05-14T01:49:44.269Z,10.39
2023-05-14T01:52:16.468Z,10.37
2023-05-14T01:54:48.834Z,10.36
2023-05-14T01:57:21.689Z,10.33
2023-05-14T01:59:54.205Z,10.32
2023-05-14T02:02:26.762Z,10.29
2023-05-14T02:04:58.864Z,10.28
2023-05-14T02:07:31.245Z,10.25
2023-05-14T02:10:03.305Z,10.22
2023-05-14T02:12:36.232Z,10.17
2023-05-14T02:15:11.215Z,10.12
2023-05-14T02:17:46.867Z,10.06
2023-05-14T02:20:19.869Z,10.00
2023-05-14T02:22:52.088Z,9.95
2023-05-14T02:25:24.000Z,9.91
2023-05-14T02:27:56.961Z,9.87
2023-05-14T02:30:30.217Z,9.84
2023-05-14T02:33:02.227Z,9.81
2023-05-14T02:35:35.340Z,9.78
2023-05-14T02:38:07.764Z,9.76
2023-05-14T02:40:40.859Z,9.74
2023-05-14T02:43:12.716Z,9.71
2023-05-14T02:45:44.638Z,9.69
2023-05-14T02:48:16.771Z,9.67
2023-05-14T02:50:49.192Z,9.65
2023-05-14T02:53:21.995Z,9.64
2023-05-14T02:55:54.276Z,9.62
2023-05-14T02:58:28.369Z,9.62
2023-05-14T03:01:00.792Z,9.61
2023-05-14T03:03:36.673Z,9.61
2023-05-14T03:06:09.605Z,9.59
2023-05-14T03:08:41.739Z,9.58
2023-05-14T03:11:17.123Z,9.56
2023-05-14T03:13:49.597Z,9.55
2023-05-14T03:16:21.720Z,9.53
2023-05-14T03:18:53.966Z,9.52
2023-05-14T03:21:27.501Z,9.50
2023-05-14T03:23:59.644Z,9.48
2023-05-14T03:26:31.527Z,9.45
2023-05-14T03:29:04.001Z,9.43
2023-05-14T03:31:36.080Z,9.43
2023-05-14T03:34:14.770Z,9.42
2023-05-14T03:36:46.761Z,9.42
2023-05-14T03:39:19.968Z,9.42
2023-05-14T03:41:52.038Z,9.44
2023-05-14T03:44:24.089Z,9.47
2023-05-14T03:46:55.965Z,9.51
2023-05-14T03:49:28.323Z,9.55
2023-05-14T03:52:00.521Z,9.60
2023-05-14T03:54:32.739Z,9.64
2023-05-14T03:57:04.859Z,9.70
2023-05-14T03:59:36.910Z,9.76
2023-05-14T04:02:08.975Z,9.82
2023-05-14T04:04:41.292Z,9.89
2023-05-14T04:07:13.332Z,9.97
2023-05-14T04:09:45.206Z,10.06
2023-05-14T04:12:17.039Z,10.16
2023-05-14T04:14:48.955Z,10.26
2023-05-14T04:17:21.103Z,10.39
2023-05-14T04:19:53.519Z,10.51
2023-05-14T04:22:25.576Z,10.63
2023-05-14T04:24:57.686Z,10.76
2023-05-14T04:27:29.738Z,10.89
2023-05-14T04:30:01.954Z,11.03
2023-05-14T04:32:35.940Z,11.17
2023-05-14T04:35:07.151Z,11.32
2023-05-14T04:37:39.153Z,11.43
2023-05-14T04:40:13.122Z,11.59
2023-05-14T04:42:45.106Z,11.75
2023-05-14T04:45:17.730Z,11.89
2023-05-14T04:47:51.591Z,12.03
2023-05-14T04:50:23.652Z,12.18
2023-05-14T04:52:56.010Z,12.29
2023-05-14T04:55:28.153Z,12.40
2023-05-14T04:58:00.763Z,12.53
2023-05-14T05:00:33.644Z,12.65
2023-05-14T05:03:05.765Z,12.75
2023-05-14T05:05:38.082Z,12.86
2023-05-14T05:08:11.536Z,12.97
2023-05-14T05:10:45.355Z,13.07
2023-05-14T05:13:17.287Z,13.17
2023-05-14T05:15:49.699Z,13.26
2023-05-14T05:18:21.758Z,13.35
2023-05-14T05:20:53.860Z,13.45
2023-05-14T05:23:26.011Z,13.51
2023-05-14T05:25:58.182Z,13.56
2023-05-14T05:28:30.058Z,13.63
2023-05-14T05:31:02.572Z,13.71
2023-05-14T05:33:35.117Z,13.79
2023-05-14T05:36:07.468Z,13.87
2023-05-14T05:38:39.649Z,13.96
2023-05-14T05:41:11.666Z,14.06
2023-05-14T05:43:43.589Z,14.15
2023-05-14T05:46:15.654Z,14.23
2023-05-14T05:48:47.569Z,14.29
2023-05-14T05:51:20.875Z,14.37
2023-05-14T05:53:52.937Z,14.44
2023-05-14T05:56:25.110Z,14.53
2023-05-14T05:58:57.037Z,14.63
2023-05-14T06:01:29.677Z,14.73
2023-05-14T06:04:02.163Z,14.83
2023-05-14T06:06:35.639Z,14.95
2023-05-14T06:09:09.198Z,15.06
2023-05-14T06:11:40.377Z,15.16
2023-05-14T06:14:12.426Z,15.24
2023-05-14T06:16:44.549Z,15.35
2023-05-14T06:19:17.446Z,15.44
2023-05-14T06:21:50.371Z,15.51
2023-05-14T06:24:22.619Z,15.58
2023-05-14T06:26:54.784Z,15.67
2023-05-14T06:29:27.080Z,15.75
2023-05-14T06:32:01.996Z,15.85
2023-05-14T06:34:34.844Z,15.96
2023-05-14T06:37:07.648Z,16.06
2023-05-14T06:39:39.803Z,16.20
2023-05-14T06:42:12.080Z,16.31
2023-05-14T06:44:44.076Z,16.42
2023-05-14T06:47:16.092Z,16.51
2023-05-14T06:49:48.667Z,16.59
2023-05-14T06:52:20.902Z,16.69
2023-05-14T06:54:52.893Z,16.80
2023-05-14T06:57:25.326Z,16.91
2023-05-14T06:59:57.546Z,17.03
2023-05-14T07:02:29.844Z,17.14
2023-05-14T07:05:01.999Z,17.26
2023-05-14T07:07:34.097Z,17.36
2023-05-14T07:10:08.184Z,17.50
2023-05-14T07:12:41.228Z,17.64
2023-05-14T07:15:15.015Z,17.80
2023-05-14T07:17:45.924Z,17.96
2023-05-14T07:20:17.982Z,18.11
2023-05-14T07:22:50.212Z,18.26
2023-05-14T07:25:22.569Z,18.42
2023-05-14T07:27:55.229Z,18.57
2023-05-14T07:30:27.412Z,18.72
2023-05-14T07:32:59.725Z,18.87
2023-05-14T07:35:31.870Z,18.97
2023-05-14T07:38:05.944Z,19.05
2023-05-14T07:40:37.806Z,19.15
2023-05-14T07:43:09.869Z,19.24
2023-05-14T07:45:42.161Z,19.34
2023-05-14T07:48:14.329Z,19.47
2023-05-14T07:50:46.606Z,19.60
2023-05-14T07:53:18.962Z,19.72
2023-05-14T07:55:52.442Z,19.82
2023-05-14T07:58:25.330Z,19.93
2023-05-14T08:00:57.850Z,20.02
2023-05-14T08:03:32.515Z,20.11
2023-05-14T08:06:06.533Z,20.23
2023-05-14T08:08:39.506Z,20.33
2023-05-14T08:11:11.896Z,20.46
2023-05-14T08:13:44.544Z,20.57
2023-05-14T08:16:16.509Z,20.70
2023-05-14T08:18:48.694Z,20.81
2023-05-14T08:21:20.833Z,20.93
2023-05-14T08:23:53.243Z,21.08
2023-05-14T08:26:26.059Z,21.22
2023-05-14T08:28:59.156Z,21.36
2023-05-14T08:31:31.208Z,21.50
2023-05-14T08:34:03.806Z,21.62
2023-05-14T08:36:36.789Z,21.76
2023-05-14T08:39:09.008Z,21.88
2023-05-14T08:41:41.936Z,21.93
2023-05-14T08:44:20.024Z,22.01
2023-05-14T08:46:52.663Z,22.13
2023-05-14T08:49:30.170Z,22.22
2023-05-14T08:52:02.658Z,22.28
2023-05-14T08:54:36.276Z,22.25
2023-05-14T08:57:07.142Z,22.26
2023-05-14T08:59:39.644Z,22.29
2023-05-14T09:02:12.765Z,22.42
2023-05-14T09:04:45.383Z,22.56
2023-05-14T09:07:18.021Z,22.69
2023-05-14T09:09:50.618Z,22.85
2023-05-14T09:12:23.769Z,22.98
2023-05-14T09:14:58.205Z,23.05
2023-05-14T09:17:30.736Z,23.12
2023-05-14T09:20:02.937Z,23.22
2023-05-14T09:22:36.360Z,23.29
2023-05-14T09:25:12.280Z,23.41
2023-05-14T09:27:46.799Z,23.56
2023-05-14T09:30:19.199Z,23.66
2023-05-14T09:32:51.179Z,23.69
2023-05-14T09:35:25.188Z,23.61
2023-05-14T09:37:58.013Z,23.62
2023-05-14T09:40:30.241Z,23.67
2023-05-14T09:43:02.811Z,23.77
2023-05-14T09:45:35.009Z,23.82
2023-05-14T09:48:08.077Z,23.82
2023-05-14T09:50:46.696Z,23.89
2023-05-14T09:53:18.805Z,24.01
2023-05-14T09:55:51.181Z,24.14
2023-05-14T09:58:23.107Z,24.26
2023-05-14T10:00:55.616Z,24.30
2023-05-14T10:03:29.109Z,24.33
2023-05-14T10:06:04.145Z,24.36
2023-05-14T10:08:37.528Z,24.41
2023-05-14T10:11:12.486Z,24.45
2023-05-14T10:13:51.048Z,24.48
2023-05-14T10:16:29.622Z,24.57
2023-05-14T10:19:06.727Z,24.72
2023-05-14T10:21:40.592Z,24.92
2023-05-14T10:24:13.076Z,25.07
2023-05-14T10:26:45.888Z,24.97
2023-05-14T10:29:18.275Z,24.76
2023-05-14T10:31:54.829Z,24.62
2023-05-14T10:34:38.824Z,24.52
2023-05-14T10:37:12.959Z,24.60
2023-05-14T10:39:47.085Z,24.70
2023-05-14T10:42:20.737Z,24.60
2023-05-14T10:44:56.036Z,24.48
2023-05-14T10:47:30.158Z,24.30
2023-05-14T10:50:06.196Z,24.24
2023-05-14T10:52:38.383Z,24.32
2023-05-14T10:55:13.754Z,24.53
2023-05-14T10:57:47.882Z,24.56
2023-05-14T11:00:21.787Z,24.36
2023-05-14T11:02:58.913Z,24.14
2023-05-14T11:05:31.072Z,23.86
2023-05-14T11:08:06.218Z,23.77
2023-05-14T11:10:39.090Z,23.87
2023-05-14T11:13:11.717Z,24.11
2023-05-14T11:15:47.396Z,24.46
2023-05-14T11:18:31.206Z,24.82
2023-05-14T11:21:03.424Z,25.13
2023-05-14T11:23:36.156Z,25.38
2023-05-14T11:26:08.757Z,25.57
2023-05-14T11:28:41.778Z,25.77
2023-05-14T11:31:14.017Z,25.98
2023-05-14T11:33:47.421Z,26.01
2023-05-14T11:36:19.766Z,26.02
2023-05-14T11:38:52.963Z,26.12
2023-05-14T11:41:26.357Z,26.25
2023-05-14T11:43:56.694Z,26.21
2023-05-14T11:46:30.215Z,26.17
2023-05-14T11:49:02.452Z,26.20
2023-05-14T11:51:34.857Z,26.25
2023-05-14T11:54:07.259Z,26.29
2023-05-14T11:56:39.577Z,26.37
2023-05-14T11:59:15.361Z,26.43
2023-05-14T12:01:50.699Z,26.42
2023-05-14T12:04:23.435Z,26.43
2023-05-14T12:06:56.337Z,26.50
2023-05-14T12:09:28.778Z,26.52
2023-05-14T12:12:00.623Z,26.64
2023-05-14T12:14:32.714Z,26.54
2023-05-14T12:17:04.855Z,26.47
2023-05-14T12:19:43.153Z,26.69
2023-05-14T12:22:18.803Z,26.91
2023-05-14T12:24:57.236Z,26.94
2023-05-14T12:27:31.179Z,26.83
2023-05-14T12:30:19.863Z,26.71
2023-05-14T12:32:53.916Z,26.59
2023-05-14T12:35:26.252Z,26.64
2023-05-14T12:37:59.225Z,26.76
2023-05-14T12:40:32.487Z,26.94
2023-05-14T12:43:07.397Z,27.11
2023-05-14T12:45:42.732Z,27.18
2023-05-14T12:48:16.621Z,27.21
2023-05-14T12:50:50.590Z,27.16
2023-05-14T12:53:22.818Z,27.10
2023-05-14T12:55:55.278Z,26.96
2023-05-14T12:58:27.853Z,26.78
2023-05-14T13:01:00.038Z,26.64
2023-05-14T13:03:38.083Z,26.45
2023-05-14T13:06:10.995Z,26.10
2023-05-14T13:08:44.402Z,25.69
2023-05-14T13:11:16.465Z,25.40
2023-05-14T13:13:48.524Z,25.21
2023-05-14T13:16:20.725Z,25.07
2023-05-14T13:18:52.832Z,25.13
2023-05-14T13:21:24.821Z,25.22
2023-05-14T13:23:57.513Z,25.18
2023-05-14T13:26:29.610Z,25.18
2023-05-14T13:29:02.990Z,25.15
2023-05-14T13:31:35.437Z,25.14
2023-05-14T13:34:09.016Z,24.95
2023-05-14T13:36:44.058Z,24.72
2023-05-14T13:39:16.269Z,24.50
2023-05-14T13:41:48.479Z,24.26
2023-05-14T13:44:20.633Z,24.00
2023-05-14T13:46:53.099Z,23.95
2023-05-14T13:49:25.410Z,24.22
2023-05-14T13:52:00.201Z,24.63
2023-05-14T13:54:33.086Z,25.05
2023-05-14T13:57:05.229Z,25.36
2023-05-14T13:59:38.235Z,25.52
2023-05-14T14:02:10.905Z,25.70
2023-05-14T14:04:43.066Z,25.95
2023-05-14T14:07:15.283Z,26.10
2023-05-14T14:09:48.233Z,26.19
2023-05-14T14:12:21.629Z,26.33
2023-05-14T14:14:52.320Z,26.50
2023-05-14T14:17:25.191Z,26.67
2023-05-14T14:19:57.489Z,26.80
2023-05-14T14:22:29.522Z,26.87
2023-05-14T14:25:01.654Z,26.93
2023-05-14T14:27:36.112Z,27.04
2023-05-14T14:30:15.788Z,27.09
2023-05-14T14:32:48.440Z,27.08
2023-05-14T14:35:21.450Z,27.07
2023-05-14T14:37:56.004Z,27.06
2023-05-14T14:40:29.829Z,27.07
2023-05-14T14:43:02.492Z,27.10
2023-05-14T14:45:36.969Z,27.21
2023-05-14T14:48:31.575Z,27.33
2023-05-14T14:51:04.198Z,27.27
2023-05-14T14:53:37.338Z,27.21
2023-05-14T14:56:09.918Z,27.11
2023-05-14T14:58:42.704Z,27.01
2023-05-14T15:01:14.946Z,26.95
2023-05-14T15:03:48.658Z,26.96
2023-05-14T15:06:21.098Z,26.98
2023-05-14T15:08:53.010Z,26.94
2023-05-14T15:11:25.308Z,26.92
2023-05-14T15:13:57.138Z,26.87
2023-05-14T15:16:29.120Z,26.87
2023-05-14T15:19:01.475Z,26.78
2023-05-14T15:21:33.555Z,26.66
2023-05-14T15:24:06.388Z,26.49
2023-05-14T15:26:39.464Z,26.45
2023-05-14T15:29:12.534Z,26.38
2023-05-14T15:31:44.936Z,26.30
2023-05-14T15:34:17.128Z,26.27
2023-05-14T15:36:49.146Z,26.31
2023-05-14T15:39:21.620Z,26.32
2023-05-14T15:41:55.057Z,26.26
2023-05-14T15:44:26.547Z,26.02
2023-05-14T15:46:59.245Z,25.71
2023-05-14T15:49:32.019Z,25.42
2023-05-14T15:52:04.281Z,25.06
2023-05-14T15:54:37.142Z,24.72
2023-05-14T15:57:09.267Z,24.49
2023-05-14T15:59:41.436Z,24.30
2023-05-14T16:02:13.751Z,24.15
2023-05-14T16:04:46.356Z,24.07
2023-05-14T16:07:18.651Z,23.99
2023-05-14T16:09:50.975Z,23.95
2023-05-14T16:12:22.911Z,23.95
2023-05-14T16:14:57.098Z,23.90
2023-05-14T16:17:30.598Z,23.82
2023-05-14T16:20:02.026Z,23.74
2023-05-14T16:22:34.794Z,23.66
2023-05-14T16:25:09.107Z,23.62
2023-05-14T16:27:41.657Z,23.58
2023-05-14T16:30:15.224Z,23.54
2023-05-14T16:32:48.642Z,23.51
2023-05-14T16:35:20.731Z,23.48
2023-05-14T16:37:57.106Z,23.47
2023-05-14T16:40:29.009Z,23.49
2023-05-14T16:43:03.645Z,23.51
2023-05-14T16:45:37.442Z,23.51
2023-05-14T16:48:10.044Z,23.50
2023-05-14T16:50:42.467Z,23.47
2023-05-14T16:53:14.930Z,23.41
2023-05-14T16:55:47.246Z,23.40
2023-05-14T16:58:19.143Z,23.34
2023-05-14T17:00:51.281Z,23.25
2023-05-14T17:03:23.995Z,23.16
2023-05-14T17:05:56.088Z,23.06
2023-05-14T17:08:33.034Z,22.93
2023-05-14T17:11:06.180Z,22.82
2023-05-14T17:13:37.398Z,22.69
2023-05-14T17:16:17.874Z,22.56
2023-05-14T17:18:49.164Z,22.46
2023-05-14T17:21:23.211Z,22.37
2023-05-14T17:23:55.072Z,22.28
2023-05-14T17:26:27.055Z,22.20
2023-05-14T17:29:02.461Z,22.12
2023-05-14T17:31:35.024Z,22.04
2023-05-14T17:34:08.307Z,21.96
2023-05-14T17:36:40.851Z,21.89
2023-05-14T17:39:12.819Z,21.80
2023-05-14T17:41:44.881Z,21.72
2023-05-14T17:44:16.955Z,21.64
2023-05-14T17:46:52.232Z,21.56
2023-05-14T17:49:26.822Z,21.47
2023-05-14T17:51:58.982Z,21.41
2023-05-14T17:54:30.908Z,21.34
2023-05-14T17:57:03.046Z,21.26
2023-05-14T17:59:35.364Z,21.21
2023-05-14T18:02:08.225Z,21.14
2023-05-14T18:04:40.306Z,21.09
2023-05-14T18:07:13.578Z,21.02
2023-05-14T18:09:45.879Z,20.96
2023-05-14T18:12:18.753Z,20.91
2023-05-14T18:14:50.762Z,20.86
2023-05-14T18:17:24.864Z,20.82
2023-05-14T18:19:56.953Z,20.77
2023-05-14T18:22:28.879Z,20.70
2023-05-14T18:25:01.339Z,20.63
2023-05-14T18:27:45.581Z,20.55
2023-05-14T18:30:18.511Z,20.47
2023-05-14T18:32:50.909Z,20.39
2023-05-14T18:35:23.042Z,20.32
2023-05-14T18:37:55.218Z,20.26
2023-05-14T18:40:27.179Z,20.18
2023-05-14T18:43:01.506Z,20.13
2023-05-14T18:45:34.552Z,20.08
2023-05-14T18:48:09.312Z,20.03
2023-05-14T18:50:41.342Z,19.96
2023-05-14T18:53:17.104Z,19.91
2023-05-14T18:55:52.598Z,19.85
2023-05-14T18:58:24.703Z,19.81
2023-05-14T19:00:59.127Z,19.78
2023-05-14T19:03:31.270Z,19.74
2023-05-14T19:06:03.725Z,19.70
2023-05-14T19:08:42.987Z,19.65
2023-05-14T19:11:14.920Z,19.60
2023-05-14T19:13:50.211Z,19.55
2023-05-14T19:16:24.448Z,19.51
2023-05-14T19:18:56.624Z,19.47
2023-05-14T19:21:29.571Z,19.41
2023-05-14T19:24:01.651Z,19.34
2023-05-14T19:26:34.088Z,19.28
2023-05-14T19:29:07.892Z,19.23
2023-05-14T19:31:38.231Z,19.18
2023-05-14T19:34:10.214Z,19.13
2023-05-14T19:36:42.381Z,19.07
2023-05-14T19:39:14.810Z,19.01
2023-05-14T19:41:47.087Z,18.97
2023-05-14T19:44:19.038Z,18.92
2023-05-14T19:46:51.075Z,18.91
2023-05-14T19:49:23.157Z,18.89
2023-05-14T19:51:55.106Z,18.86
2023-05-14T19:54:28.208Z,18.83
2023-05-14T19:57:00.187Z,18.79
2023-05-14T19:59:32.275Z,18.76
2023-05-14T20:02:06.033Z,18.72
2023-05-14T20:04:40.038Z,18.69
2023-05-14T20:07:12.392Z,18.64
2023-05-14T20:09:44.559Z,18.61
2023-05-14T20:12:17.007Z,18.60
2023-05-14T20:14:51.853Z,18.59
2023-05-14T20:17:24.960Z,18.57
2023-05-14T20:19:57.081Z,18.55
2023-05-14T20:22:29.148Z,18.52
2023-05-14T20:25:00.970Z,18.50
2023-05-14T20:27:33.077Z,18.48
2023-05-14T20:30:05.481Z,18.46
2023-05-14T20:32:37.691Z,18.44
2023-05-14T20:35:10.882Z,18.40
2023-05-14T20:37:42.975Z,18.38
2023-05-14T20:40:15.236Z,18.35
2023-05-14T20:42:47.199Z,18.32
2023-05-14T20:45:19.852Z,18.28
2023-05-14T20:47:52.775Z,18.25
2023-05-14T20:50:27.242Z,18.20
2023-05-14T20:52:59.770Z,18.17
2023-05-14T20:55:31.866Z,18.14
2023-05-14T20:58:03.872Z,18.12
2023-05-14T21:00:37.878Z,18.10
2023-05-14T21:03:10.453Z,18.08
2023-05-14T21:05:43.944Z,18.07
2023-05-14T21:08:16.310Z,18.06
2023-05-14T21:10:48.685Z,18.04
2023-05-14T21:13:21.051Z,18.02
2023-05-14T21:15:52.984Z,18.00
2023-05-14T21:18:27.382Z,17.97
2023-05-14T21:20:59.492Z,17.94
2023-05-14T21:23:32.768Z,17.91
2023-05-14T21:26:04.938Z,17.88
2023-05-14T21:28:36.819Z,17.84
2023-05-14T21:31:09.319Z,17.80
2023-05-14T21:33:41.528Z,17.77
2023-05-14T21:36:13.527Z,17.73
2023-05-14T21:38:45.466Z,17.69
2023-05-14T21:41:17.293Z,17.65
2023-05-14T21:43:49.288Z,17.62
2023-05-14T21:46:21.258Z,17.60
2023-05-14T21:48:53.586Z,17.56
2023-05-14T21:51:26.144Z,17.53
2023-05-14T21:53:58.705Z,17.49
2023-05-14T21:56:30.723Z,17.44
2023-05-14T21:59:02.759Z,17.40
2023-05-14T22:01:38.647Z,17.37
2023-05-14T22:04:23.095Z,17.34
2023-05-14T22:06:55.047Z,17.30
2023-05-14T22:09:27.265Z,17.28
2023-05-14T22:11:59.358Z,17.25
2023-05-14T22:14:31.280Z,17.22
2023-05-14T22:17:03.342Z,17.18
2023-05-14T22:19:36.465Z,17.15
2023-05-14T22:22:08.733Z,17.11
2023-05-14T22:24:40.840Z,17.08
2023-05-14T22:27:12.853Z,17.05
2023-05-14T22:29:44.807Z,17.00
2023-05-14T22:32:16.675Z,16.97
2023-05-14T22:34:48.933Z,16.94
2023-05-14T22:37:21.522Z,16.89
2023-05-14T22:39:53.379Z,16.87
2023-05-14T22:42:26.736Z,16.84
2023-05-14T22:44:58.630Z,16.81
2023-05-14T22:47:31.004Z,16.79
2023-05-14T22:50:02.999Z,16.77
2023-05-14T22:52:35.346Z,16.75
2023-05-14T22:55:08.571Z,16.72
2023-05-14T22:57:40.908Z,16.71
2023-05-14T23:00:14.901Z,16.70
2023-05-14T23:02:47.131Z,16.67
2023-05-14T23:05:19.366Z,16.64
2023-05-14T23:07:51.341Z,16.62
2023-05-14T23:10:23.194Z,16.62
2023-05-14T23:12:55.095Z,16.61
2023-05-14T23:15:27.217Z,16.59
2023-05-14T23:17:59.433Z,16.57
2023-05-14T23:20:31.357Z,16.55
2023-05-14T23:23:03.381Z,16.54
2023-05-14T23:25:35.909Z,16.52
2023-05-14T23:28:07.960Z,16.51
2023-05-14T23:30:39.959Z,16.48
2023-05-14T23:33:12.094Z,16.46
2023-05-14T23:35:44.260Z,16.45
2023-05-14T23:38:16.248Z,16.45
2023-05-14T23:40:48.186Z,16.45
2023-05-14T23:43:20.662Z,16.44
2023-05-14T23:45:52.641Z,16.44
2023-05-14T23:48:24.938Z,16.43
2023-05-14T23:50:56.627Z,16.43
2023-05-14T23:53:28.728Z,16.42
2023-05-14T23:56:00.514Z,16.40
2023-05-14T23:58:33.060Z,16.39
